createdAt,value
2023-05-14T00:00:18.326Z,41.31
2023-05-14T00:02:47.836Z,41.38
2023-05-14T00:05:16.162Z,41.37
2023-05-14T00:07:44.249Z,41.38
2023-05-14T00:10:12.455Z,41.41
2023-05-14T00:12:40.482Z,41.25
2023-05-14T00:15:09.904Z,41.33
2023-05-14T00:17:39.134Z,41.36
2023-05-14T00:20:09.571Z,41.22
2023-05-14T00:22:38.417Z,41.26
2023-05-14T00:25:07.854Z,41.26
2023-05-14T00:27:36.203Z,41.29
2023-05-14T00:30:05.618Z,41.29
2023-05-14T00:32:34.805Z,41.30
2023-05-14T00:35:04.525Z,41.29
2023-05-14T00:37:34.024Z,41.25
2023-05-14T00:40:02.075Z,41.24
2023-05-14T00:42:30.175Z,41.14
2023-05-14T00:44:58.248Z,41.19
2023-05-14T00:47:26.559Z,41.25
2023-05-14T00:49:54.813Z,41.11
2023-05-14T00:52:23.074Z,41.17
2023-05-14T00:54:53.252Z,41.08
2023-05-14T00:57:21.725Z,41.22
2023-05-14T00:59:49.930Z,41.17
2023-05-14T01:02:18.062Z,41.12
2023-05-14T01:04:46.307Z,41.18
2023-05-14T01:07:21.983Z,41.09
2023-05-14T01:09:55.712Z,41.06
2023-05-14T01:12:31.187Z,41.12
2023-05-14T01:15:06.610Z,41.13
2023-05-14T01:17:36.622Z,41.14
2023-05-14T01:20:05.963Z,41.17
2023-05-14T01:22:35.421Z,41.15
2023-05-14T01:25:05.613Z,41.12
2023-05-14T01:27:40.074Z,41.17
2023-05-14T01:30:20.793Z,41.12
2023-05-14T01:32:53.011Z,41.16
2023-05-14T01:35:23.854Z,41.21
2023-05-14T01:37:54.890Z,41.15
2023-05-14T01:40:24.201Z,41.12
2023-05-14T01:42:54.112Z,41.03
2023-05-14T01:45:24.489Z,41.22
2023-05-14T01:47:52.718Z,41.13
2023-05-14T01:50:21.441Z,41.04
2023-05-14T01:52:51.278Z,41.08
2023-05-14T01:55:20.986Z,41.07
2023-05-14T01:57:49.203Z,41.13
2023-05-14T02:00:17.600Z,41.01
2023-05-14T02:02:45.736Z,41.05
2023-05-14T02:05:14.967Z,41.09
2023-05-14T02:07:43.059Z,40.96
2023-05-14T02:10:11.961Z,41.11
2023-05-14T02:12:41.661Z,40.90
2023-05-14T02:15:11.198Z,41.21
2023-05-14T02:17:39.703Z,41.12
2023-05-14T02:20:10.417Z,41.03
2023-05-14T02:22:42.257Z,41.12
2023-05-14T02:25:11.528Z,40.87
2023-05-14T02:27:39.617Z,40.98
2023-05-14T02:30:13.702Z,41.02
2023-05-14T02:32:41.970Z,41.06
2023-05-14T02:35:10.942Z,41.05
2023-05-14T02:37:38.974Z,41.05
2023-05-14T02:40:08.366Z,41.07
2023-05-14T02:42:36.963Z,41.14
2023-05-14T02:45:05.637Z,40.76
2023-05-14T02:47:37.759Z,41.04
2023-05-14T02:50:07.460Z,41.05
2023-05-14T02:52:36.701Z,41.03
2023-05-14T02:55:05.063Z,40.93
2023-05-14T02:57:33.097Z,41.08
2023-05-14T03:00:01.311Z,40.97
2023-05-14T03:02:30.074Z,41.08
2023-05-14T03:04:59.981Z,41.08
2023-05-14T03:07:28.037Z,41.06
2023-05-14T03:09:56.657Z,41.03
2023-05-14T03:12:24.773Z,40.94
2023-05-14T03:14:52.967Z,41.06
2023-05-14T03:17:21.076Z,40.93
2023-05-14T03:19:49.145Z,40.92
2023-05-14T03:22:18.649Z,41.05
2023-05-14T03:24:46.738Z,40.97
2023-05-14T03:27:14.749Z,40.89
2023-05-14T03:29:42.802Z,40.96
2023-05-14T03:32:10.827Z,40.89
2023-05-14T03:34:38.985Z,40.93
2023-05-14T03:37:07.045Z,40.83
2023-05-14T03:39:36.660Z,40.89
2023-05-14T03:42:05.253Z,40.98
2023-05-14T03:44:33.366Z,41.04
2023-05-14T03:47:01.453Z,41.19
2023-05-14T03:49:30.442Z,40.82
2023-05-14T03:51:59.680Z,40.96
2023-05-14T03:54:27.916Z,40.89
2023-05-14T03:56:58.489Z,40.88
2023-05-14T03:59:26.833Z,40.86
2023-05-14T04:01:55.284Z,40.92
2023-05-14T04:04:23.494Z,40.97
2023-05-14T04:06:51.702Z,41.05
2023-05-14T04:09:19.799Z,40.86
2023-05-14T04:11:47.869Z,40.81
2023-05-14T04:14:17.336Z,41.03
2023-05-14T04:16:45.518Z,41.08
2023-05-14T04:19:14.086Z,40.99
2023-05-14T04:21:42.233Z,40.92
2023-05-14T04:24:10.772Z,41.00
2023-05-14T04:26:38.997Z,40.87
2023-05-14T04:29:07.305Z,41.09
2023-05-14T04:31:37.471Z,41.06
2023-05-14T04:34:05.591Z,41.03
2023-05-14T04:36:33.746Z,41.13
2023-05-14T04:39:01.871Z,41.00
2023-05-14T04:41:30.021Z,41.06
2023-05-14T04:43:58.268Z,41.00
2023-05-14T04:46:26.713Z,40.95
2023-05-14T04:48:56.518Z,40.95
2023-05-14T04:51:25.067Z,41.04
2023-05-14T04:53:53.333Z,41.03
2023-05-14T04:56:21.653Z,41.06
2023-05-14T04:58:49.791Z,41.07
2023-05-14T05:01:18.142Z,41.01
2023-05-14T05:03:46.321Z,40.98
2023-05-14T05:06:16.172Z,41.00
2023-05-14T05:08:44.255Z,41.06
2023-05-14T05:11:12.633Z,41.03
2023-05-14T05:13:40.702Z,40.88
2023-05-14T05:16:09.620Z,40.90
2023-05-14T05:18:37.774Z,40.91
2023-05-14T05:21:05.956Z,40.91
2023-05-14T05:23:35.515Z,40.96
2023-05-14T05:26:03.845Z,40.90
2023-05-14T05:28:32.142Z,40.97
2023-05-14T05:31:00.387Z,41.03
2023-05-14T05:33:28.598Z,41.14
2023-05-14T05:35:56.884Z,41.13
2023-05-14T05:38:25.037Z,41.07
2023-05-14T05:40:55.847Z,40.93
2023-05-14T05:43:23.970Z,41.00
2023-05-14T05:45:52.016Z,41.04
2023-05-14T05:48:20.184Z,41.21
2023-05-14T05:50:49.552Z,41.21
2023-05-14T05:53:17.734Z,41.15
2023-05-14T05:55:45.894Z,41.08
2023-05-14T05:58:17.339Z,41.00
2023-05-14T06:00:45.840Z,41.09
2023-05-14T06:03:14.714Z,41.10
2023-05-14T06:05:44.581Z,41.04
2023-05-14T06:08:12.739Z,40.96
2023-05-14T06:10:40.917Z,41.01
2023-05-14T06:13:09.038Z,40.98
2023-05-14T06:15:38.495Z,40.91
2023-05-14T06:18:06.756Z,40.99
2023-05-14T06:20:35.741Z,40.95
2023-05-14T06:23:03.854Z,40.91
2023-05-14T06:25:31.944Z,40.94
2023-05-14T06:28:00.053Z,41.04
2023-05-14T06:30:28.207Z,41.01
2023-05-14T06:32:57.726Z,40.98
2023-05-14T06:35:26.075Z,41.12
2023-05-14T06:37:54.203Z,41.00
2023-05-14T06:40:24.811Z,41.05
2023-05-14T06:42:53.164Z,41.09
2023-05-14T06:45:21.216Z,40.91
2023-05-14T06:47:49.355Z,40.86
2023-05-14T06:50:19.447Z,40.87
2023-05-14T06:52:47.586Z,40.66
2023-05-14T06:55:15.643Z,40.66
2023-05-14T06:57:44.222Z,40.65
2023-05-14T07:00:14.391Z,40.57
2023-05-14T07:02:42.517Z,40.68
2023-05-14T07:05:11.509Z,40.49
2023-05-14T07:07:41.379Z,40.62
2023-05-14T07:10:09.842Z,40.54
2023-05-14T07:12:37.982Z,40.65
2023-05-14T07:15:07.200Z,40.67
2023-05-14T07:17:35.372Z,40.63
2023-05-14T07:20:03.795Z,40.57
2023-05-14T07:22:31.867Z,40.69
2023-05-14T07:25:01.451Z,40.77
2023-05-14T07:27:29.550Z,40.77
2023-05-14T07:29:57.616Z,40.74
2023-05-14T07:32:26.158Z,40.75
2023-05-14T07:34:54.318Z,40.66
2023-05-14T07:37:24.145Z,40.73
2023-05-14T07:39:52.371Z,40.81
2023-05-14T07:42:34.507Z,40.92
2023-05-14T07:45:03.872Z,40.65
2023-05-14T07:47:32.179Z,40.81
2023-05-14T07:50:00.698Z,40.71
2023-05-14T07:52:28.923Z,40.71
2023-05-14T07:54:57.055Z,40.87
2023-05-14T07:57:26.555Z,40.78
2023-05-14T07:59:54.627Z,40.69
2023-05-14T08:02:23.229Z,40.62
2023-05-14T08:04:51.410Z,40.65
2023-05-14T08:07:19.466Z,40.72
2023-05-14T08:09:47.588Z,40.76
2023-05-14T08:12:16.154Z,40.75
2023-05-14T08:14:46.143Z,40.85
2023-05-14T08:17:14.346Z,40.84
2023-05-14T08:19:42.484Z,40.89
2023-05-14T08:22:10.568Z,40.97
2023-05-14T08:24:38.859Z,40.86
2023-05-14T08:27:08.006Z,40.75
2023-05-14T08:29:36.147Z,41.02
2023-05-14T08:32:19.329Z,40.98
2023-05-14T08:34:51.929Z,40.97
2023-05-14T08:37:20.413Z,41.01
2023-05-14T08:39:48.540Z,41.06
2023-05-14T08:42:21.016Z,41.09
2023-05-14T08:44:51.087Z,41.08
2023-05-14T08:47:23.268Z,41.19
2023-05-14T08:49:56.210Z,41.16
2023-05-14T08:52:24.401Z,41.08
2023-05-14T08:54:54.891Z,41.26
2023-05-14T08:57:24.942Z,41.34
2023-05-14T08:59:53.324Z,41.27
2023-05-14T09:02:26.321Z,41.28
2023-05-14T09:04:57.510Z,41.33
2023-05-14T09:07:25.670Z,41.33
2023-05-14T09:09:54.734Z,41.32
2023-05-14T09:12:23.490Z,41.34
2023-05-14T09:14:52.458Z,41.44
2023-05-14T09:17:21.183Z,41.50
2023-05-14T09:19:53.177Z,41.43
2023-05-14T09:22:22.403Z,41.39
2023-05-14T09:25:04.727Z,41.67
2023-05-14T09:27:33.850Z,41.61
2023-05-14T09:30:10.427Z,41.78
2023-05-14T09:32:40.260Z,41.57
2023-05-14T09:35:18.442Z,41.66
2023-05-14T09:37:47.820Z,41.54
2023-05-14T09:40:17.448Z,41.47
2023-05-14T09:42:45.867Z,41.71
2023-05-14T09:45:14.061Z,41.54
2023-05-14T09:47:42.527Z,41.56
2023-05-14T09:50:11.025Z,41.48
2023-05-14T09:52:40.557Z,41.58
2023-05-14T09:55:09.303Z,41.58
2023-05-14T09:57:37.479Z,41.66
2023-05-14T10:00:06.839Z,41.58
2023-05-14T10:02:38.903Z,41.60
2023-05-14T10:05:08.213Z,41.55
2023-05-14T10:07:41.726Z,41.71
2023-05-14T10:10:14.788Z,41.58
2023-05-14T10:12:44.872Z,41.66
2023-05-14T10:15:18.878Z,41.88
2023-05-14T10:17:51.940Z,41.70
2023-05-14T10:20:21.748Z,41.72
2023-05-14T10:22:52.351Z,41.75
2023-05-14T10:25:20.830Z,41.72
2023-05-14T10:27:49.203Z,41.70
2023-05-14T10:30:17.823Z,41.71
2023-05-14T10:32:46.368Z,41.85
2023-05-14T10:35:20.383Z,41.98
2023-05-14T10:37:48.816Z,41.63
2023-05-14T10:40:19.291Z,41.71
2023-05-14T10:42:48.349Z,41.85
2023-05-14T10:45:17.270Z,41.79
2023-05-14T10:47:47.423Z,41.91
2023-05-14T10:50:17.701Z,41.83
2023-05-14T10:52:46.852Z,41.93
2023-05-14T10:55:17.956Z,41.88
2023-05-14T10:57:47.878Z,41.82
2023-05-14T11:00:17.137Z,41.85
2023-05-14T11:02:46.093Z,41.82
2023-05-14T11:05:16.998Z,41.94
2023-05-14T11:07:47.057Z,41.88
2023-05-14T11:10:18.227Z,41.77
2023-05-14T11:12:48.021Z,41.88
2023-05-14T11:15:18.836Z,41.88
2023-05-14T11:17:48.365Z,41.88
2023-05-14T11:20:17.360Z,41.92
2023-05-14T11:22:47.381Z,41.93
2023-05-14T11:25:18.451Z,41.96
2023-05-14T11:27:47.924Z,41.96
2023-05-14T11:30:17.286Z,41.74
2023-05-14T11:32:46.919Z,41.76
2023-05-14T11:35:15.742Z,41.91
2023-05-14T11:37:44.041Z,41.95
2023-05-14T11:40:17.721Z,41.90
2023-05-14T11:42:46.258Z,41.91
2023-05-14T11:45:14.880Z,41.91
2023-05-14T11:47:43.440Z,41.85
2023-05-14T11:50:12.114Z,41.92
2023-05-14T11:52:41.674Z,41.86
2023-05-14T11:55:12.905Z,42.03
2023-05-14T11:57:42.609Z,41.97
2023-05-14T12:00:13.616Z,41.92
2023-05-14T12:02:41.813Z,41.85
2023-05-14T12:05:13.804Z,42.01
2023-05-14T12:07:42.340Z,41.84
2023-05-14T12:10:13.131Z,41.86
2023-05-14T12:12:46.790Z,42.02
2023-05-14T12:15:16.496Z,42.08
2023-05-14T12:17:50.517Z,41.84
2023-05-14T12:20:19.167Z,41.84
2023-05-14T12:22:47.294Z,42.00
2023-05-14T12:25:15.445Z,41.91
2023-05-14T12:27:46.153Z,42.05
2023-05-14T12:32:46.200Z,41.94
2023-05-14T12:35:14.318Z,42.00
2023-05-14T12:37:43.133Z,41.99
2023-05-14T12:40:11.840Z,41.96
2023-05-14T12:42:40.000Z,42.08
2023-05-14T12:45:10.209Z,41.98
2023-05-14T12:47:38.587Z,42.01
2023-05-14T12:50:07.772Z,42.07
2023-05-14T12:52:39.437Z,42.13
2023-05-14T12:55:09.380Z,42.07
2023-05-14T12:57:39.102Z,42.08
2023-05-14T13:00:13.954Z,42.13
2023-05-14T13:02:43.873Z,42.07
2023-05-14T13:05:12.880Z,42.05
2023-05-14T13:07:41.174Z,42.02
2023-05-14T13:10:10.268Z,41.87
2023-05-14T13:12:38.734Z,41.81
2023-05-14T13:15:07.633Z,41.97
2023-05-14T13:17:37.218Z,42.03
2023-05-14T13:20:06.213Z,42.09
2023-05-14T13:22:34.281Z,42.15
2023-05-14T13:25:02.325Z,42.08
2023-05-14T13:27:30.524Z,42.11
2023-05-14T13:29:59.055Z,42.17
2023-05-14T13:32:27.336Z,42.12
2023-05-14T13:34:56.882Z,42.17
2023-05-14T13:37:26.479Z,42.10
2023-05-14T13:39:54.502Z,42.11
2023-05-14T13:42:23.730Z,42.06
2023-05-14T13:44:51.738Z,42.14
2023-05-14T13:47:19.801Z,42.16
2023-05-14T13:49:47.842Z,42.14
2023-05-14T13:52:17.354Z,42.14
2023-05-14T13:54:45.425Z,42.20
2023-05-14T13:57:13.509Z,41.89
2023-05-14T13:59:41.691Z,42.12
2023-05-14T14:02:10.238Z,42.17
2023-05-14T14:04:38.259Z,42.05
2023-05-14T14:07:06.395Z,42.06
2023-05-14T14:09:36.961Z,42.24
2023-05-14T14:12:05.628Z,42.08
2023-05-14T14:14:33.715Z,42.15
2023-05-14T14:17:01.705Z,41.88
2023-05-14T14:19:30.117Z,42.18
2023-05-14T14:21:58.211Z,42.28
2023-05-14T14:24:26.247Z,42.30
2023-05-14T14:26:55.640Z,42.26
2023-05-14T14:29:24.047Z,42.22
2023-05-14T14:31:52.232Z,42.18
2023-05-14T14:34:20.319Z,42.29
2023-05-14T14:36:48.337Z,42.34
2023-05-14T14:39:16.584Z,42.20
2023-05-14T14:41:44.777Z,42.31
2023-05-14T14:44:14.266Z,42.37
2023-05-14T14:46:43.569Z,42.38
2023-05-14T14:49:11.704Z,42.35
2023-05-14T14:51:39.787Z,42.37
2023-05-14T14:54:07.857Z,42.42
2023-05-14T14:56:35.962Z,42.54
2023-05-14T14:59:04.117Z,42.46
2023-05-14T15:01:34.004Z,42.42
2023-05-14T15:04:02.071Z,42.33
2023-05-14T15:06:30.199Z,42.36
2023-05-14T15:08:59.021Z,42.44
2023-05-14T15:11:27.229Z,42.42
2023-05-14T15:13:55.319Z,42.52
2023-05-14T15:16:23.416Z,42.50
2023-05-14T15:18:52.989Z,42.41
2023-05-14T15:21:21.193Z,42.55
2023-05-14T15:23:49.270Z,42.43
2023-05-14T15:26:17.339Z,42.46
2023-05-14T15:28:45.454Z,42.56
2023-05-14T15:31:13.746Z,42.55
2023-05-14T15:33:42.604Z,42.48
2023-05-14T15:36:12.810Z,42.45
2023-05-14T15:38:40.955Z,42.38
2023-05-14T15:41:09.089Z,42.44
2023-05-14T15:43:37.098Z,42.43
2023-05-14T15:46:05.187Z,42.36
2023-05-14T15:48:33.247Z,42.37
2023-05-14T15:51:01.350Z,42.37
2023-05-14T15:53:30.856Z,42.33
2023-05-14T15:55:58.914Z,42.25
2023-05-14T15:58:27.821Z,42.14
2023-05-14T16:00:56.144Z,42.15
2023-05-14T16:03:24.246Z,42.23
2023-05-14T16:05:52.456Z,42.40
2023-05-14T16:08:20.571Z,42.45
2023-05-14T16:10:49.967Z,42.38
2023-05-14T16:13:18.039Z,42.45
2023-05-14T16:15:46.204Z,42.38
2023-05-14T16:18:14.406Z,42.50
2023-05-14T16:20:42.581Z,42.54
2023-05-14T16:23:10.603Z,42.49
2023-05-14T16:25:39.382Z,42.41
2023-05-14T16:28:08.919Z,42.49
2023-05-14T16:30:36.946Z,42.51
2023-05-14T16:33:05.156Z,42.49
2023-05-14T16:35:33.257Z,42.46
2023-05-14T16:38:01.754Z,42.44
2023-05-14T16:40:30.317Z,42.37
2023-05-14T16:42:58.413Z,42.35
2023-05-14T16:45:27.959Z,42.29
2023-05-14T16:47:55.988Z,42.35
2023-05-14T16:50:24.093Z,42.38
2023-05-14T16:52:52.177Z,42.33
2023-05-14T16:55:20.709Z,42.28
2023-05-14T16:57:48.832Z,42.37
2023-05-14T17:00:18.103Z,42.20
2023-05-14T17:02:49.227Z,42.23
2023-05-14T17:05:17.768Z,42.30
2023-05-14T17:07:45.842Z,42.43
2023-05-14T17:10:13.906Z,42.34
2023-05-14T17:12:41.967Z,42.27
2023-05-14T17:15:11.045Z,42.36
2023-05-14T17:17:39.872Z,42.36
2023-05-14T17:20:10.625Z,42.32
2023-05-14T17:22:38.863Z,42.39
2023-05-14T17:25:09.592Z,42.39
2023-05-14T17:27:37.712Z,42.34
2023-05-14T17:30:06.888Z,42.26
2023-05-14T17:32:35.100Z,42.37
2023-05-14T17:35:03.223Z,42.29
2023-05-14T17:37:32.792Z,42.34
2023-05-14T17:40:00.843Z,42.33
2023-05-14T17:42:29.023Z,42.33
2023-05-14T17:44:57.186Z,42.39
2023-05-14T17:47:25.363Z,42.36
2023-05-14T17:49:53.479Z,42.38
2023-05-14T17:52:21.565Z,42.31
2023-05-14T17:54:51.033Z,42.63
2023-05-14T17:57:19.138Z,42.65
2023-05-14T17:59:47.206Z,42.61
2023-05-14T18:02:15.228Z,42.76
2023-05-14T18:04:43.302Z,42.53
2023-05-14T18:07:11.416Z,42.67
2023-05-14T18:09:39.476Z,42.57
2023-05-14T18:12:10.164Z,42.59
2023-05-14T18:14:38.250Z,42.61
2023-05-14T18:17:06.864Z,42.59
2023-05-14T18:19:35.032Z,42.65
2023-05-14T18:22:03.106Z,42.57
2023-05-14T18:24:31.207Z,42.69
2023-05-14T18:26:59.368Z,42.56
2023-05-14T18:29:28.854Z,42.52
2023-05-14T18:31:56.912Z,42.70
2023-05-14T18:34:25.060Z,42.56
2023-05-14T18:36:53.197Z,42.65
2023-05-14T18:39:21.515Z,42.58
2023-05-14T18:41:49.661Z,42.61
2023-05-14T18:44:17.753Z,42.58
2023-05-14T18:46:47.366Z,42.57
2023-05-14T18:49:15.524Z,42.55
2023-05-14T18:51:43.547Z,42.62
2023-05-14T18:54:11.607Z,42.54
2023-05-14T18:56:41.306Z,42.60
2023-05-14T18:59:09.336Z,42.52
2023-05-14T19:01:37.523Z,42.46
2023-05-14T19:04:07.515Z,42.50
2023-05-14T19:06:36.423Z,42.60
2023-05-14T19:09:04.796Z,42.63
2023-05-14T19:11:32.858Z,42.55
2023-05-14T19:14:00.976Z,42.61
2023-05-14T19:16:29.315Z,42.66
2023-05-14T19:18:57.512Z,42.69
2023-05-14T19:21:29.241Z,42.75
2023-05-14T19:23:57.359Z,42.67
2023-05-14T19:26:25.506Z,42.75
2023-05-14T19:28:58.416Z,42.93
2023-05-14T19:31:26.646Z,42.79
2023-05-14T19:33:55.206Z,42.85
2023-05-14T19:36:23.370Z,42.93
2023-05-14T19:38:52.810Z,42.77
2023-05-14T19:41:21.717Z,42.80
2023-05-14T19:43:49.913Z,42.82
2023-05-14T19:46:18.117Z,42.80
2023-05-14T19:48:46.376Z,42.92
2023-05-14T19:51:14.476Z,42.93
2023-05-14T19:53:42.595Z,42.92
2023-05-14T19:56:12.107Z,42.91
2023-05-14T19:58:40.182Z,42.84
2023-05-14T20:01:08.450Z,42.91
2023-05-14T20:03:36.610Z,42.98
2023-05-14T20:06:05.076Z,42.88
2023-05-14T20:08:33.419Z,42.97
2023-05-14T20:11:01.599Z,42.89
2023-05-14T20:13:32.248Z,42.92
2023-05-14T20:16:00.968Z,43.00
2023-05-14T20:18:29.154Z,43.03
2023-05-14T20:20:57.366Z,43.00
2023-05-14T20:23:25.445Z,43.00
2023-05-14T20:25:53.593Z,42.94
2023-05-14T20:28:21.684Z,43.03
2023-05-14T20:30:51.228Z,43.10
2023-05-14T20:33:19.398Z,43.05
2023-05-14T20:35:47.473Z,43.04
2023-05-14T20:38:17.386Z,43.06
2023-05-14T20:40:45.633Z,43.11
2023-05-14T20:43:13.834Z,43.01
2023-05-14T20:45:41.886Z,43.01
2023-05-14T20:48:15.122Z,42.98
2023-05-14T20:50:43.222Z,43.13
2023-05-14T20:53:11.260Z,43.01
2023-05-14T20:55:39.504Z,43.12
2023-05-14T20:58:07.671Z,43.05
2023-05-14T21:00:35.755Z,42.92
2023-05-14T21:03:04.260Z,43.10
2023-05-14T21:05:33.923Z,42.98
2023-05-14T21:08:02.019Z,43.10
2023-05-14T21:10:30.142Z,43.07
2023-05-14T21:12:58.204Z,43.03
2023-05-14T21:15:27.352Z,43.02
2023-05-14T21:17:55.683Z,43.08
2023-05-14T21:20:23.722Z,43.13
2023-05-14T21:22:53.112Z,43.20
2023-05-14T21:25:21.176Z,42.98
2023-05-14T21:27:49.202Z,43.08
2023-05-14T21:30:17.398Z,43.07
2023-05-14T21:32:45.599Z,43.12
2023-05-14T21:35:13.659Z,43.17
2023-05-14T21:37:41.993Z,43.11
2023-05-14T21:40:12.666Z,43.09
2023-05-14T21:42:41.071Z,43.17
2023-05-14T21:45:09.910Z,43.06
2023-05-14T21:47:38.664Z,43.07
2023-05-14T21:50:07.618Z,43.16
2023-05-14T21:52:35.817Z,43.08
2023-05-14T21:55:03.857Z,43.17
2023-05-14T21:57:34.494Z,43.15
2023-05-14T22:00:04.698Z,42.97
2023-05-14T22:02:33.905Z,43.07
2023-05-14T22:05:02.153Z,43.19
2023-05-14T22:07:30.209Z,43.00
2023-05-14T22:09:58.233Z,43.04
2023-05-14T22:12:26.343Z,43.13
2023-05-14T22:14:55.769Z,43.18
2023-05-14T22:17:23.779Z,43.16
2023-05-14T22:19:51.884Z,43.15
2023-05-14T22:22:19.891Z,43.16
2023-05-14T22:24:47.894Z,43.19
2023-05-14T22:27:15.942Z,43.13
2023-05-14T22:29:43.990Z,43.18
2023-05-14T22:32:13.438Z,43.19
2023-05-14T22:34:41.573Z,43.14
2023-05-14T22:37:10.056Z,43.17
2023-05-14T22:39:38.104Z,43.26
2023-05-14T22:42:06.970Z,43.23
2023-05-14T22:44:35.517Z,43.28
2023-05-14T22:47:03.607Z,43.18
2023-05-14T22:49:33.196Z,43.18
2023-05-14T22:52:01.437Z,43.21
2023-05-14T22:54:29.474Z,43.13
2023-05-14T22:56:57.482Z,43.21
2023-05-14T22:59:25.497Z,43.16
2023-05-14T23:01:53.599Z,43.21
2023-05-14T23:04:22.169Z,43.20
2023-05-14T23:06:51.735Z,43.17
2023-05-14T23:09:20.097Z,43.16
2023-05-14T23:11:48.116Z,43.24
2023-05-14T23:14:18.042Z,43.29
2023-05-14T23:16:46.274Z,43.14
2023-05-14T23:19:14.450Z,43.20
2023-05-14T23:21:42.569Z,43.18
2023-05-14T23:24:12.034Z,43.29
2023-05-14T23:26:40.319Z,43.21
2023-05-14T23:29:08.340Z,43.18
2023-05-14T23:31:36.835Z,43.19
2023-05-14T23:34:04.945Z,43.27
2023-05-14T23:36:33.572Z,43.18
2023-05-14T23:39:01.724Z,43.21
2023-05-14T23:41:31.700Z,43.21
2023-05-14T23:43:59.902Z,43.27
2023-05-14T23:46:28.300Z,43.23
2023-05-14T23:48:57.190Z,43.14
2023-05-14T23:51:25.338Z,43.24
2023-05-14T23:53:58.276Z,43.22
2023-05-14T23:56:27.483Z,43.27
2023-05-14T23:58:57.260Z,43.26
